sensor_id;sensor_type;location;lat;lon;timestamp;temperature;humidity
44886;DHT22;36669;51.428;21.162;2023-09-08T00:02:27;16.40;99.90
44886;DHT22;36669;51.428;21.162;2023-09-08T00:04:54;16.30;99.90
44886;DHT22;36669;51.428;21.162;2023-09-08T00:07:22;16.30;99.90
44886;DHT22;36669;51.428;21.162;2023-09-08T00:09:48;16.40;99.90
44886;DHT22;36669;51.428;21.162;2023-09-08T00:12:15;16.40;99.90
44886;DHT22;36669;51.428;21.162;2023-09-08T00:14:41;16.40;99.90
44886;DHT22;36669;51.428;21.162;2023-09-08T00:17:10;16.30;99.90
44886;DHT22;36669;51.428;21.162;2023-09-08T00:19:36;16.30;99.90
44886;DHT22;36669;51.428;21.162;2023-09-08T00:22:03;16.20;99.90
44886;DHT22;36669;51.428;21.162;2023-09-08T00:24:32;16.20;99.90
44886;DHT22;36669;51.428;21.162;2023-09-08T00:27:01;16.10;99.90
44886;DHT22;36669;51.428;21.162;2023-09-08T00:29:26;16.00;99.90
44886;DHT22;36669;51.428;21.162;2023-09-08T00:31:52;15.90;99.90
44886;DHT22;36669;51.428;21.162;2023-09-08T00:34:18;15.80;99.90
44886;DHT22;36669;51.428;21.162;2023-09-08T00:36:43;15.80;99.90
44886;DHT22;36669;51.428;21.162;2023-09-08T00:39:09;15.90;99.90
44886;DHT22;36669;51.428;21.162;2023-09-08T00:41:37;15.90;99.90
44886;DHT22;36669;51.428;21.162;2023-09-08T00:44:05;15.80;99.90
44886;DHT22;36669;51.428;21.162;2023-09-08T00:46:33;15.80;99.90
44886;DHT22;36669;51.428;21.162;2023-09-08T00:49:00;15.70;99.90
44886;DHT22;36669;51.428;21.162;2023-09-08T00:51:27;15.70;99.90
44886;DHT22;36669;51.428;21.162;2023-09-08T00:53:54;15.70;99.90
44886;DHT22;36669;51.428;21.162;2023-09-08T00:56:23;15.70;99.90
44886;DHT22;36669;51.428;21.162;2023-09-08T00:58:49;15.70;99.90
44886;DHT22;36669;51.428;21.162;2023-09-08T01:01:15;15.70;99.90
44886;DHT22;36669;51.428;21.162;2023-09-08T01:03:43;15.60;99.90
44886;DHT22;36669;51.428;21.162;2023-09-08T01:06:12;15.60;99.90
44886;DHT22;36669;51.428;21.162;2023-09-08T01:08:41;15.60;99.90
44886;DHT22;36669;51.428;21.162;2023-09-08T01:11:21;15.60;99.90
44886;DHT22;36669;51.428;21.162;2023-09-08T01:13:46;15.50;99.90
44886;DHT22;36669;51.428;21.162;2023-09-08T01:16:15;15.50;99.90
44886;DHT22;36669;51.428;21.162;2023-09-08T01:18:41;15.50;99.90
44886;DHT22;36669;51.428;21.162;2023-09-08T01:26:57;15.20;99.90
44886;DHT22;36669;51.428;21.162;2023-09-08T01:29:25;15.20;99.90
44886;DHT22;36669;51.428;21.162;2023-09-08T01:31:51;15.10;99.90
44886;DHT22;36669;51.428;21.162;2023-09-08T01:34:19;15.10;99.90
44886;DHT22;36669;51.428;21.162;2023-09-08T01:36:48;15.10;99.90
44886;DHT22;36669;51.428;21.162;2023-09-08T01:39:15;15.10;99.90
44886;DHT22;36669;51.428;21.162;2023-09-08T01:41:42;15.10;99.90
44886;DHT22;36669;51.428;21.162;2023-09-08T01:44:09;15.00;99.90
44886;DHT22;36669;51.428;21.162;2023-09-08T01:46:37;15.00;99.90
44886;DHT22;36669;51.428;21.162;2023-09-08T01:49:04;15.00;99.90
44886;DHT22;36669;51.428;21.162;2023-09-08T01:51:31;14.90;99.90
44886;DHT22;36669;51.428;21.162;2023-09-08T01:53:57;15.00;99.90
44886;DHT22;36669;51.428;21.162;2023-09-08T01:56:22;15.00;99.90
44886;DHT22;36669;51.428;21.162;2023-09-08T01:58:49;15.10;99.90
44886;DHT22;36669;51.428;21.162;2023-09-08T02:01:16;15.00;99.90
44886;DHT22;36669;51.428;21.162;2023-09-08T02:03:42;15.10;99.90
44886;DHT22;36669;51.428;21.162;2023-09-08T02:06:09;15.10;99.90
44886;DHT22;36669;51.428;21.162;2023-09-08T02:08:37;15.10;99.90
44886;DHT22;36669;51.428;21.162;2023-09-08T02:11:04;15.10;99.90
44886;DHT22;36669;51.428;21.162;2023-09-08T02:13:29;15.10;99.90
44886;DHT22;36669;51.428;21.162;2023-09-08T02:15:55;15.10;99.90
44886;DHT22;36669;51.428;21.162;2023-09-08T02:18:22;15.00;99.90
44886;DHT22;36669;51.428;21.162;2023-09-08T02:20:50;15.00;99.90
44886;DHT22;36669;51.428;21.162;2023-09-08T02:23:16;15.00;99.90
44886;DHT22;36669;51.428;21.162;2023-09-08T02:25:43;14.90;99.90
44886;DHT22;36669;51.428;21.162;2023-09-08T02:28:09;14.90;99.90
44886;DHT22;36669;51.428;21.162;2023-09-08T02:30:34;14.80;99.90
44886;DHT22;36669;51.428;21.162;2023-09-08T02:33:03;14.70;99.90
44886;DHT22;36669;51.428;21.162;2023-09-08T02:35:30;14.70;99.90
44886;DHT22;36669;51.428;21.162;2023-09-08T02:37:56;14.70;99.90
44886;DHT22;36669;51.428;21.162;2023-09-08T02:40:25;14.60;99.90
44886;DHT22;36669;51.428;21.162;2023-09-08T02:42:52;14.60;99.90
44886;DHT22;36669;51.428;21.162;2023-09-08T02:45:18;14.60;99.90
44886;DHT22;36669;51.428;21.162;2023-09-08T02:47:45;14.60;99.90
44886;DHT22;36669;51.428;21.162;2023-09-08T02:50:13;14.60;99.90
44886;DHT22;36669;51.428;21.162;2023-09-08T02:52:40;14.60;99.90
44886;DHT22;36669;51.428;21.162;2023-09-08T02:55:06;14.60;99.90
44886;DHT22;36669;51.428;21.162;2023-09-08T02:57:34;14.60;99.90
44886;DHT22;36669;51.428;21.162;2023-09-08T03:00:01;14.50;99.90
44886;DHT22;36669;51.428;21.162;2023-09-08T03:02:28;14.50;99.90
44886;DHT22;36669;51.428;21.162;2023-09-08T03:04:54;14.50;99.90
44886;DHT22;36669;51.428;21.162;2023-09-08T03:07:21;14.50;99.90
44886;DHT22;36669;51.428;21.162;2023-09-08T03:09:48;14.40;99.90
44886;DHT22;36669;51.428;21.162;2023-09-08T03:12:15;14.40;99.90
44886;DHT22;36669;51.428;21.162;2023-09-08T03:14:42;14.40;99.90
44886;DHT22;36669;51.428;21.162;2023-09-08T03:17:11;14.40;99.90
44886;DHT22;36669;51.428;21.162;2023-09-08T03:19:39;14.40;99.90
44886;DHT22;36669;51.428;21.162;2023-09-08T03:22:06;14.40;99.90
44886;DHT22;36669;51.428;21.162;2023-09-08T03:24:33;14.30;99.90
44886;DHT22;36669;51.428;21.162;2023-09-08T03:27:00;14.30;99.90
44886;DHT22;36669;51.428;21.162;2023-09-08T03:29:26;14.30;99.90
44886;DHT22;36669;51.428;21.162;2023-09-08T03:31:52;14.20;99.90
44886;DHT22;36669;51.428;21.162;2023-09-08T03:34:17;14.10;99.90
44886;DHT22;36669;51.428;21.162;2023-09-08T03:36:48;14.10;99.90
44886;DHT22;36669;51.428;21.162;2023-09-08T03:39:15;14.10;99.90
44886;DHT22;36669;51.428;21.162;2023-09-08T03:41:43;14.10;99.90
44886;DHT22;36669;51.428;21.162;2023-09-08T03:44:09;14.10;99.90
44886;DHT22;36669;51.428;21.162;2023-09-08T03:46:38;14.00;99.90
44886;DHT22;36669;51.428;21.162;2023-09-08T03:49:03;14.00;99.90
44886;DHT22;36669;51.428;21.162;2023-09-08T03:51:30;14.00;99.90
44886;DHT22;36669;51.428;21.162;2023-09-08T03:53:56;14.00;99.90
44886;DHT22;36669;51.428;21.162;2023-09-08T03:56:24;14.00;99.90
44886;DHT22;36669;51.428;21.162;2023-09-08T03:58:51;13.90;99.90
44886;DHT22;36669;51.428;21.162;2023-09-08T04:01:17;13.90;99.90
44886;DHT22;36669;51.428;21.162;2023-09-08T04:03:43;13.90;99.90
44886;DHT22;36669;51.428;21.162;2023-09-08T04:06:09;13.90;99.90
44886;DHT22;36669;51.428;21.162;2023-09-08T04:08:35;13.90;99.90
44886;DHT22;36669;51.428;21.162;2023-09-08T04:11:01;13.90;99.90
44886;DHT22;36669;51.428;21.162;2023-09-08T04:13:28;13.90;99.90
44886;DHT22;36669;51.428;21.162;2023-09-08T04:15:54;14.00;99.90
44886;DHT22;36669;51.428;21.162;2023-09-08T04:18:21;14.00;99.90
44886;DHT22;36669;51.428;21.162;2023-09-08T04:20:47;14.00;99.90
44886;DHT22;36669;51.428;21.162;2023-09-08T04:23:16;14.00;99.90
44886;DHT22;36669;51.428;21.162;2023-09-08T04:25:41;14.00;99.90
44886;DHT22;36669;51.428;21.162;2023-09-08T04:28:08;14.00;99.90
44886;DHT22;36669;51.428;21.162;2023-09-08T04:30:36;14.00;99.90
44886;DHT22;36669;51.428;21.162;2023-09-08T04:33:01;14.00;99.90
44886;DHT22;36669;51.428;21.162;2023-09-08T04:35:30;14.00;99.90
44886;DHT22;36669;51.428;21.162;2023-09-08T04:37:59;14.10;99.90
44886;DHT22;36669;51.428;21.162;2023-09-08T04:40:26;14.10;99.90
44886;DHT22;36669;51.428;21.162;2023-09-08T04:42:52;14.00;99.90
44886;DHT22;36669;51.428;21.162;2023-09-08T04:45:21;14.00;99.90
44886;DHT22;36669;51.428;21.162;2023-09-08T04:47:49;14.00;99.90
44886;DHT22;36669;51.428;21.162;2023-09-08T04:50:16;14.10;99.90
44886;DHT22;36669;51.428;21.162;2023-09-08T04:52:42;14.10;99.90
44886;DHT22;36669;51.428;21.162;2023-09-08T04:55:09;14.10;99.90
44886;DHT22;36669;51.428;21.162;2023-09-08T04:57:35;14.10;99.90
44886;DHT22;36669;51.428;21.162;2023-09-08T05:00:03;14.20;99.90
44886;DHT22;36669;51.428;21.162;2023-09-08T05:02:30;14.20;99.90
44886;DHT22;36669;51.428;21.162;2023-09-08T05:04:56;14.30;99.90
44886;DHT22;36669;51.428;21.162;2023-09-08T05:07:23;14.40;99.90
44886;DHT22;36669;51.428;21.162;2023-09-08T05:09:50;14.50;99.90
44886;DHT22;36669;51.428;21.162;2023-09-08T05:12:17;14.60;99.90
44886;DHT22;36669;51.428;21.162;2023-09-08T05:14:42;14.60;99.90
44886;DHT22;36669;51.428;21.162;2023-09-08T05:17:08;14.70;99.90
44886;DHT22;36669;51.428;21.162;2023-09-08T05:19:35;14.80;99.90
44886;DHT22;36669;51.428;21.162;2023-09-08T05:22:04;14.90;99.90
44886;DHT22;36669;51.428;21.162;2023-09-08T05:24:30;15.00;99.90
44886;DHT22;36669;51.428;21.162;2023-09-08T05:26:57;15.10;99.90
44886;DHT22;36669;51.428;21.162;2023-09-08T05:29:23;15.20;99.90
44886;DHT22;36669;51.428;21.162;2023-09-08T05:31:50;15.30;99.90
44886;DHT22;36669;51.428;21.162;2023-09-08T05:34:18;15.30;99.90
44886;DHT22;36669;51.428;21.162;2023-09-08T05:36:46;15.50;99.90
44886;DHT22;36669;51.428;21.162;2023-09-08T05:39:15;15.60;99.90
44886;DHT22;36669;51.428;21.162;2023-09-08T05:41:42;15.70;99.90
44886;DHT22;36669;51.428;21.162;2023-09-08T05:44:08;15.90;99.90
44886;DHT22;36669;51.428;21.162;2023-09-08T05:46:35;16.00;99.90
44886;DHT22;36669;51.428;21.162;2023-09-08T05:49:04;16.20;99.90
44886;DHT22;36669;51.428;21.162;2023-09-08T05:51:31;16.30;99.90
44886;DHT22;36669;51.428;21.162;2023-09-08T05:53:57;16.50;99.90
44886;DHT22;36669;51.428;21.162;2023-09-08T05:56:29;16.60;99.90
44886;DHT22;36669;51.428;21.162;2023-09-08T05:58:57;16.70;99.90
44886;DHT22;36669;51.428;21.162;2023-09-08T06:01:23;16.90;99.90
44886;DHT22;36669;51.428;21.162;2023-09-08T06:03:49;17.00;99.90
44886;DHT22;36669;51.428;21.162;2023-09-08T06:06:15;17.10;99.90
44886;DHT22;36669;51.428;21.162;2023-09-08T06:08:41;17.30;99.90
44886;DHT22;36669;51.428;21.162;2023-09-08T06:11:08;17.40;99.90
44886;DHT22;36669;51.428;21.162;2023-09-08T06:13:35;17.50;99.90
44886;DHT22;36669;51.428;21.162;2023-09-08T06:16:03;17.70;99.90
44886;DHT22;36669;51.428;21.162;2023-09-08T06:18:31;17.80;99.90
44886;DHT22;36669;51.428;21.162;2023-09-08T06:20:58;17.90;99.90
44886;DHT22;36669;51.428;21.162;2023-09-08T06:23:25;18.00;99.90
44886;DHT22;36669;51.428;21.162;2023-09-08T06:25:56;18.10;99.90
44886;DHT22;36669;51.428;21.162;2023-09-08T06:28:27;18.30;99.90
44886;DHT22;36669;51.428;21.162;2023-09-08T06:30:57;18.40;99.90
44886;DHT22;36669;51.428;21.162;2023-09-08T06:33:25;18.50;99.90
44886;DHT22;36669;51.428;21.162;2023-09-08T06:35:53;18.60;99.90
44886;DHT22;36669;51.428;21.162;2023-09-08T06:38:21;18.70;99.90
44886;DHT22;36669;51.428;21.162;2023-09-08T06:40:47;18.80;99.90
44886;DHT22;36669;51.428;21.162;2023-09-08T06:43:15;18.90;99.90
44886;DHT22;36669;51.428;21.162;2023-09-08T06:45:42;19.00;99.90
44886;DHT22;36669;51.428;21.162;2023-09-08T06:48:09;19.10;99.90
44886;DHT22;36669;51.428;21.162;2023-09-08T06:50:34;19.20;99.90
44886;DHT22;36669;51.428;21.162;2023-09-08T06:53:00;19.30;99.90
44886;DHT22;36669;51.428;21.162;2023-09-08T06:55:28;19.40;99.90
44886;DHT22;36669;51.428;21.162;2023-09-08T06:57:55;19.50;99.90
44886;DHT22;36669;51.428;21.162;2023-09-08T07:00:21;19.60;99.90
44886;DHT22;36669;51.428;21.162;2023-09-08T07:02:50;19.80;99.90
44886;DHT22;36669;51.428;21.162;2023-09-08T07:05:20;19.80;99.90
44886;DHT22;36669;51.428;21.162;2023-09-08T07:07:46;19.90;99.90
44886;DHT22;36669;51.428;21.162;2023-09-08T07:10:12;20.00;99.90
44886;DHT22;36669;51.428;21.162;2023-09-08T07:12:39;20.10;99.90
44886;DHT22;36669;51.428;21.162;2023-09-08T07:15:05;20.30;99.90
44886;DHT22;36669;51.428;21.162;2023-09-08T07:17:35;20.40;99.90
44886;DHT22;36669;51.428;21.162;2023-09-08T07:20:01;20.50;99.90
44886;DHT22;36669;51.428;21.162;2023-09-08T07:22:29;20.60;99.90
44886;DHT22;36669;51.428;21.162;2023-09-08T07:24:55;20.70;99.90
44886;DHT22;36669;51.428;21.162;2023-09-08T07:27:22;20.70;99.90
44886;DHT22;36669;51.428;21.162;2023-09-08T07:29:49;20.90;99.90
44886;DHT22;36669;51.428;21.162;2023-09-08T07:32:15;21.00;99.90
44886;DHT22;36669;51.428;21.162;2023-09-08T07:34:41;21.10;99.90
44886;DHT22;36669;51.428;21.162;2023-09-08T07:37:07;21.30;99.90
44886;DHT22;36669;51.428;21.162;2023-09-08T07:39:34;21.40;99.90
44886;DHT22;36669;51.428;21.162;2023-09-08T07:42:03;21.50;99.90
44886;DHT22;36669;51.428;21.162;2023-09-08T07:44:29;21.70;99.90
44886;DHT22;36669;51.428;21.162;2023-09-08T07:46:56;21.80;99.90
44886;DHT22;36669;51.428;21.162;2023-09-08T07:49:23;21.80;99.90
44886;DHT22;36669;51.428;21.162;2023-09-08T07:51:50;21.90;99.90
44886;DHT22;36669;51.428;21.162;2023-09-08T07:54:19;22.00;99.90
44886;DHT22;36669;51.428;21.162;2023-09-08T07:56:44;22.00;99.90
44886;DHT22;36669;51.428;21.162;2023-09-08T07:59:10;22.10;99.90
44886;DHT22;36669;51.428;21.162;2023-09-08T08:01:38;22.20;99.90
44886;DHT22;36669;51.428;21.162;2023-09-08T08:04:03;22.30;99.90
44886;DHT22;36669;51.428;21.162;2023-09-08T08:06:30;22.50;99.90
44886;DHT22;36669;51.428;21.162;2023-09-08T08:08:57;22.50;99.90
44886;DHT22;36669;51.428;21.162;2023-09-08T08:11:24;22.70;99.90
44886;DHT22;36669;51.428;21.162;2023-09-08T08:13:52;22.80;99.90
44886;DHT22;36669;51.428;21.162;2023-09-08T08:16:19;22.80;99.90
44886;DHT22;36669;51.428;21.162;2023-09-08T08:18:49;22.80;99.90
44886;DHT22;36669;51.428;21.162;2023-09-08T08:21:27;23.00;99.90
44886;DHT22;36669;51.428;21.162;2023-09-08T08:23:55;23.00;99.90
44886;DHT22;36669;51.428;21.162;2023-09-08T08:26:22;23.20;99.90
44886;DHT22;36669;51.428;21.162;2023-09-08T08:28:51;23.30;99.90
44886;DHT22;36669;51.428;21.162;2023-09-08T08:31:18;23.30;99.90
44886;DHT22;36669;51.428;21.162;2023-09-08T08:33:45;23.40;99.90
44886;DHT22;36669;51.428;21.162;2023-09-08T08:36:11;23.50;99.90
44886;DHT22;36669;51.428;21.162;2023-09-08T08:38:38;23.60;99.90
44886;DHT22;36669;51.428;21.162;2023-09-08T08:41:04;23.70;99.90
44886;DHT22;36669;51.428;21.162;2023-09-08T08:43:32;23.70;99.90
44886;DHT22;36669;51.428;21.162;2023-09-08T08:46:00;23.80;99.90
44886;DHT22;36669;51.428;21.162;2023-09-08T08:48:32;23.80;99.90
44886;DHT22;36669;51.428;21.162;2023-09-08T08:51:02;23.90;99.90
44886;DHT22;36669;51.428;21.162;2023-09-08T08:53:29;24.00;99.90
44886;DHT22;36669;51.428;21.162;2023-09-08T08:55:58;24.00;99.90
44886;DHT22;36669;51.428;21.162;2023-09-08T08:58:25;24.00;99.90
44886;DHT22;36669;51.428;21.162;2023-09-08T09:00:53;24.20;99.90
44886;DHT22;36669;51.428;21.162;2023-09-08T09:03:25;24.30;99.90
44886;DHT22;36669;51.428;21.162;2023-09-08T09:05:53;24.30;99.90
44886;DHT22;36669;51.428;21.162;2023-09-08T09:08:23;24.30;99.90
44886;DHT22;36669;51.428;21.162;2023-09-08T09:10:51;24.50;99.90
44886;DHT22;36669;51.428;21.162;2023-09-08T09:13:17;24.60;99.90
44886;DHT22;36669;51.428;21.162;2023-09-08T09:15:46;24.60;99.90
44886;DHT22;36669;51.428;21.162;2023-09-08T09:18:14;24.70;99.90
44886;DHT22;36669;51.428;21.162;2023-09-08T09:20:41;24.70;99.90
44886;DHT22;36669;51.428;21.162;2023-09-08T09:23:35;24.70;99.90
44886;DHT22;36669;51.428;21.162;2023-09-08T09:26:04;24.80;99.90
44886;DHT22;36669;51.428;21.162;2023-09-08T09:28:31;24.80;99.90
44886;DHT22;36669;51.428;21.162;2023-09-08T09:30:58;24.90;99.90
44886;DHT22;36669;51.428;21.162;2023-09-08T09:33:24;25.10;99.90
44886;DHT22;36669;51.428;21.162;2023-09-08T09:35:54;25.00;99.90
44886;DHT22;36669;51.428;21.162;2023-09-08T09:38:26;25.20;99.90
44886;DHT22;36669;51.428;21.162;2023-09-08T09:40:53;25.40;99.90
44886;DHT22;36669;51.428;21.162;2023-09-08T09:43:21;25.60;99.90
44886;DHT22;36669;51.428;21.162;2023-09-08T09:45:48;25.70;99.90
44886;DHT22;36669;51.428;21.162;2023-09-08T09:48:14;25.80;99.90
44886;DHT22;36669;51.428;21.162;2023-09-08T09:50:41;25.90;99.90
44886;DHT22;36669;51.428;21.162;2023-09-08T09:53:13;26.10;99.90
44886;DHT22;36669;51.428;21.162;2023-09-08T09:55:42;26.20;99.90
44886;DHT22;36669;51.428;21.162;2023-09-08T09:58:11;26.30;99.90
44886;DHT22;36669;51.428;21.162;2023-09-08T10:00:38;26.50;99.90
44886;DHT22;36669;51.428;21.162;2023-09-08T10:03:08;26.60;99.90
44886;DHT22;36669;51.428;21.162;2023-09-08T10:05:34;26.60;99.90
44886;DHT22;36669;51.428;21.162;2023-09-08T10:08:01;26.90;99.90
44886;DHT22;36669;51.428;21.162;2023-09-08T10:10:32;27.30;99.90
44886;DHT22;36669;51.428;21.162;2023-09-08T10:13:06;27.60;99.90
44886;DHT22;36669;51.428;21.162;2023-09-08T10:15:33;28.00;99.90
44886;DHT22;36669;51.428;21.162;2023-09-08T10:18:04;28.30;99.90
44886;DHT22;36669;51.428;21.162;2023-09-08T10:20:30;28.30;99.90
44886;DHT22;36669;51.428;21.162;2023-09-08T10:23:23;28.40;99.90
44886;DHT22;36669;51.428;21.162;2023-09-08T10:26:03;28.30;99.90
44886;DHT22;36669;51.428;21.162;2023-09-08T10:28:32;28.00;99.90
44886;DHT22;36669;51.428;21.162;2023-09-08T10:31:01;27.80;99.90
44886;DHT22;36669;51.428;21.162;2023-09-08T10:33:33;28.00;99.90
44886;DHT22;36669;51.428;21.162;2023-09-08T10:36:04;27.70;99.90
44886;DHT22;36669;51.428;21.162;2023-09-08T10:38:37;27.20;99.90
44886;DHT22;36669;51.428;21.162;2023-09-08T10:41:25;27.10;99.90
44886;DHT22;36669;51.428;21.162;2023-09-08T10:44:07;27.50;99.90
44886;DHT22;36669;51.428;21.162;2023-09-08T10:46:34;27.80;99.90
44886;DHT22;36669;51.428;21.162;2023-09-08T10:49:04;27.70;99.90
44886;DHT22;36669;51.428;21.162;2023-09-08T10:51:35;27.60;99.90
44886;DHT22;36669;51.428;21.162;2023-09-08T10:54:02;27.60;99.90
44886;DHT22;36669;51.428;21.162;2023-09-08T10:56:56;27.50;99.90
44886;DHT22;36669;51.428;21.162;2023-09-08T10:59:34;26.80;99.90
44886;DHT22;36669;51.428;21.162;2023-09-08T11:02:07;26.80;99.90
44886;DHT22;36669;51.428;21.162;2023-09-08T11:04:54;26.80;99.90
44886;DHT22;36669;51.428;21.162;2023-09-08T11:07:22;26.70;99.90
44886;DHT22;36669;51.428;21.162;2023-09-08T11:09:49;26.80;99.90
44886;DHT22;36669;51.428;21.162;2023-09-08T11:12:17;26.90;99.90
44886;DHT22;36669;51.428;21.162;2023-09-08T11:14:45;27.00;99.90
44886;DHT22;36669;51.428;21.162;2023-09-08T11:17:16;27.20;99.90
44886;DHT22;36669;51.428;21.162;2023-09-08T11:19:49;27.10;99.90
44886;DHT22;36669;51.428;21.162;2023-09-08T11:22:17;26.90;99.90
44886;DHT22;36669;51.428;21.162;2023-09-08T11:24:44;26.90;99.90
44886;DHT22;36669;51.428;21.162;2023-09-08T11:27:13;26.90;99.90
44886;DHT22;36669;51.428;21.162;2023-09-08T11:29:40;26.80;99.90
44886;DHT22;36669;51.428;21.162;2023-09-08T11:32:11;26.70;99.90
44886;DHT22;36669;51.428;21.162;2023-09-08T11:34:40;26.70;99.90
44886;DHT22;36669;51.428;21.162;2023-09-08T11:37:13;26.70;99.90
44886;DHT22;36669;51.428;21.162;2023-09-08T11:39:40;26.90;99.90
44886;DHT22;36669;51.428;21.162;2023-09-08T11:42:07;27.00;99.90
44886;DHT22;36669;51.428;21.162;2023-09-08T11:44:35;27.30;99.90
44886;DHT22;36669;51.428;21.162;2023-09-08T11:47:04;28.00;99.90
44886;DHT22;36669;51.428;21.162;2023-09-08T11:49:37;28.60;99.90
44886;DHT22;36669;51.428;21.162;2023-09-08T11:52:07;29.10;99.90
44886;DHT22;36669;51.428;21.162;2023-09-08T11:54:45;29.50;99.90
44886;DHT22;36669;51.428;21.162;2023-09-08T11:57:12;29.90;99.90
44886;DHT22;36669;51.428;21.162;2023-09-08T11:59:39;29.80;99.90
44886;DHT22;36669;51.428;21.162;2023-09-08T12:02:06;29.50;99.90
44886;DHT22;36669;51.428;21.162;2023-09-08T12:04:35;29.20;99.90
44886;DHT22;36669;51.428;21.162;2023-09-08T12:07:03;29.30;99.90
44886;DHT22;36669;51.428;21.162;2023-09-08T12:09:29;29.50;99.90
44886;DHT22;36669;51.428;21.162;2023-09-08T12:11:57;29.40;99.90
44886;DHT22;36669;51.428;21.162;2023-09-08T12:14:27;29.40;99.90
44886;DHT22;36669;51.428;21.162;2023-09-08T12:17:05;29.70;99.90
44886;DHT22;36669;51.428;21.162;2023-09-08T12:19:33;29.90;99.90
44886;DHT22;36669;51.428;21.162;2023-09-08T12:22:04;30.10;99.90
44886;DHT22;36669;51.428;21.162;2023-09-08T12:24:58;30.20;99.90
44886;DHT22;36669;51.428;21.162;2023-09-08T12:27:26;30.30;99.90
44886;DHT22;36669;51.428;21.162;2023-09-08T12:29:59;30.40;99.90
44886;DHT22;36669;51.428;21.162;2023-09-08T12:32:49;30.70;99.90
44886;DHT22;36669;51.428;21.162;2023-09-08T12:35:20;30.90;99.90
44886;DHT22;36669;51.428;21.162;2023-09-08T12:38:02;30.80;99.90
44886;DHT22;36669;51.428;21.162;2023-09-08T12:40:30;31.00;99.90
44886;DHT22;36669;51.428;21.162;2023-09-08T12:42:57;31.00;99.90
44886;DHT22;36669;51.428;21.162;2023-09-08T12:45:30;31.20;99.90
44886;DHT22;36669;51.428;21.162;2023-09-08T12:48:01;31.40;99.90
44886;DHT22;36669;51.428;21.162;2023-09-08T12:50:32;31.50;99.90
44886;DHT22;36669;51.428;21.162;2023-09-08T12:52:57;31.70;99.90
44886;DHT22;36669;51.428;21.162;2023-09-08T12:55:25;31.90;99.90
44886;DHT22;36669;51.428;21.162;2023-09-08T12:57:53;32.00;99.90
44886;DHT22;36669;51.428;21.162;2023-09-08T13:00:23;32.00;99.90
44886;DHT22;36669;51.428;21.162;2023-09-08T13:02:49;32.00;99.90
44886;DHT22;36669;51.428;21.162;2023-09-08T13:05:16;32.10;99.90
44886;DHT22;36669;51.428;21.162;2023-09-08T13:07:42;32.30;99.90
44886;DHT22;36669;51.428;21.162;2023-09-08T13:10:08;32.60;99.90
44886;DHT22;36669;51.428;21.162;2023-09-08T13:12:35;32.80;99.90
44886;DHT22;36669;51.428;21.162;2023-09-08T13:15:02;32.80;99.90
44886;DHT22;36669;51.428;21.162;2023-09-08T13:17:30;32.80;99.90
44886;DHT22;36669;51.428;21.162;2023-09-08T13:19:58;33.00;99.90
44886;DHT22;36669;51.428;21.162;2023-09-08T13:22:26;33.20;99.90
44886;DHT22;36669;51.428;21.162;2023-09-08T13:24:54;33.50;99.90
44886;DHT22;36669;51.428;21.162;2023-09-08T13:27:22;33.50;99.90
44886;DHT22;36669;51.428;21.162;2023-09-08T13:29:48;33.60;99.90
44886;DHT22;36669;51.428;21.162;2023-09-08T13:32:16;33.40;99.90
44886;DHT22;36669;51.428;21.162;2023-09-08T13:34:43;33.40;99.50
44886;DHT22;36669;51.428;21.162;2023-09-08T13:37:10;33.50;99.90
44886;DHT22;36669;51.428;21.162;2023-09-08T13:39:38;33.60;99.30
44886;DHT22;36669;51.428;21.162;2023-09-08T13:42:05;33.10;98.20
44886;DHT22;36669;51.428;21.162;2023-09-08T13:44:30;33.40;98.90
44886;DHT22;36669;51.428;21.162;2023-09-08T13:47:00;33.50;99.70
44886;DHT22;36669;51.428;21.162;2023-09-08T13:49:27;33.60;99.10
44886;DHT22;36669;51.428;21.162;2023-09-08T13:51:55;34.10;98.40
44886;DHT22;36669;51.428;21.162;2023-09-08T13:54:22;34.30;98.40
44886;DHT22;36669;51.428;21.162;2023-09-08T13:56:58;34.10;97.10
44886;DHT22;36669;51.428;21.162;2023-09-08T13:59:27;33.80;97.30
44886;DHT22;36669;51.428;21.162;2023-09-08T14:01:56;33.80;97.00
44886;DHT22;36669;51.428;21.162;2023-09-08T14:04:33;33.90;97.80
44886;DHT22;36669;51.428;21.162;2023-09-08T14:07:00;33.80;96.60
44886;DHT22;36669;51.428;21.162;2023-09-08T14:09:25;33.80;96.30
44886;DHT22;36669;51.428;21.162;2023-09-08T14:11:55;33.80;96.40
44886;DHT22;36669;51.428;21.162;2023-09-08T14:14:20;33.70;97.10
44886;DHT22;36669;51.428;21.162;2023-09-08T14:16:46;33.90;96.50
44886;DHT22;36669;51.428;21.162;2023-09-08T14:19:13;34.20;96.80
44886;DHT22;36669;51.428;21.162;2023-09-08T14:21:40;34.70;95.90
44886;DHT22;36669;51.428;21.162;2023-09-08T14:24:06;35.10;95.80
44886;DHT22;36669;51.428;21.162;2023-09-08T14:26:33;35.80;94.10
44886;DHT22;36669;51.428;21.162;2023-09-08T14:29:02;36.00;94.00
44886;DHT22;36669;51.428;21.162;2023-09-08T14:31:31;36.50;93.40
44886;DHT22;36669;51.428;21.162;2023-09-08T14:33:59;37.00;92.20
44886;DHT22;36669;51.428;21.162;2023-09-08T14:36:26;36.90;91.40
44886;DHT22;36669;51.428;21.162;2023-09-08T14:38:54;37.00;91.00
44886;DHT22;36669;51.428;21.162;2023-09-08T14:41:24;37.40;90.80
44886;DHT22;36669;51.428;21.162;2023-09-08T14:43:51;37.50;90.10
44886;DHT22;36669;51.428;21.162;2023-09-08T14:46:16;37.60;89.30
44886;DHT22;36669;51.428;21.162;2023-09-08T14:48:44;37.50;88.30
44886;DHT22;36669;51.428;21.162;2023-09-08T14:51:10;37.50;85.80
44886;DHT22;36669;51.428;21.162;2023-09-08T14:53:37;37.40;86.60
44886;DHT22;36669;51.428;21.162;2023-09-08T14:56:05;37.30;85.30
44886;DHT22;36669;51.428;21.162;2023-09-08T14:58:32;37.40;87.20
44886;DHT22;36669;51.428;21.162;2023-09-08T15:01:01;37.30;86.40
44886;DHT22;36669;51.428;21.162;2023-09-08T15:03:35;37.00;86.50
44886;DHT22;36669;51.428;21.162;2023-09-08T15:06:02;36.80;86.80
44886;DHT22;36669;51.428;21.162;2023-09-08T15:08:29;36.50;86.80
44886;DHT22;36669;51.428;21.162;2023-09-08T15:10:55;36.40;87.40
44886;DHT22;36669;51.428;21.162;2023-09-08T15:13:22;36.20;86.70
44886;DHT22;36669;51.428;21.162;2023-09-08T15:15:49;36.10;86.20
44886;DHT22;36669;51.428;21.162;2023-09-08T15:18:16;36.30;84.50
44886;DHT22;36669;51.428;21.162;2023-09-08T15:20:56;36.40;85.10
44886;DHT22;36669;51.428;21.162;2023-09-08T15:23:23;36.30;85.60
44886;DHT22;36669;51.428;21.162;2023-09-08T15:26:00;36.20;86.10
44886;DHT22;36669;51.428;21.162;2023-09-08T15:28:25;36.10;85.70